sensor_id;sensor_type;location;lat;lon;timestamp;P1;durP1;ratioP1;P2;durP2;ratioP2
81894;SDS011;71358;45.642;13.758;2023-07-30T00:02:33;5.40;;;4.90;;
81894;SDS011;71358;45.642;13.758;2023-07-30T00:05:17;4.78;;;4.35;;
81894;SDS011;71358;45.642;13.758;2023-07-30T00:08:02;5.85;;;5.35;;
81894;SDS011;71358;45.642;13.758;2023-07-30T00:10:47;5.55;;;5.05;;
81894;SDS011;71358;45.642;13.758;2023-07-30T00:13:31;5.18;;;4.78;;
81894;SDS011;71358;45.642;13.758;2023-07-30T00:16:16;4.97;;;4.57;;
81894;SDS011;71358;45.642;13.758;2023-07-30T00:19:00;5.80;;;4.78;;
81894;SDS011;71358;45.642;13.758;2023-07-30T00:21:45;5.75;;;4.72;;
81894;SDS011;71358;45.642;13.758;2023-07-30T00:24:30;5.63;;;5.13;;
81894;SDS011;71358;45.642;13.758;2023-07-30T00:27:15;6.13;;;4.70;;
81894;SDS011;71358;45.642;13.758;2023-07-30T00:29:59;5.20;;;4.70;;
81894;SDS011;71358;45.642;13.758;2023-07-30T00:32:44;6.60;;;5.15;;
81894;SDS011;71358;45.642;13.758;2023-07-30T00:35:29;6.63;;;4.35;;
81894;SDS011;71358;45.642;13.758;2023-07-30T00:38:13;5.97;;;4.70;;
81894;SDS011;71358;45.642;13.758;2023-07-30T00:40:59;5.35;;;4.30;;
81894;SDS011;71358;45.642;13.758;2023-07-30T00:43:44;5.25;;;4.75;;
81894;SDS011;71358;45.642;13.758;2023-07-30T00:46:29;5.43;;;4.93;;
81894;SDS011;71358;45.642;13.758;2023-07-30T00:49:15;5.13;;;4.55;;
81894;SDS011;71358;45.642;13.758;2023-07-30T00:51:59;5.60;;;5.10;;
81894;SDS011;71358;45.642;13.758;2023-07-30T00:54:44;5.05;;;4.57;;
81894;SDS011;71358;45.642;13.758;2023-07-30T00:57:30;5.00;;;4.40;;
81894;SDS011;71358;45.642;13.758;2023-07-30T01:00:16;5.85;;;4.35;;
81894;SDS011;71358;45.642;13.758;2023-07-30T01:03:01;4.75;;;4.25;;
81894;SDS011;71358;45.642;13.758;2023-07-30T01:05:46;6.78;;;4.78;;
81894;SDS011;71358;45.642;13.758;2023-07-30T01:08:31;5.50;;;5.00;;
81894;SDS011;71358;45.642;13.758;2023-07-30T01:11:15;5.78;;;4.72;;
81894;SDS011;71358;45.642;13.758;2023-07-30T01:14:02;6.28;;;4.57;;
81894;SDS011;71358;45.642;13.758;2023-07-30T01:16:49;5.47;;;4.50;;
81894;SDS011;71358;45.642;13.758;2023-07-30T01:19:34;4.50;;;4.10;;
81894;SDS011;71358;45.642;13.758;2023-07-30T01:22:18;4.93;;;4.45;;
81894;SDS011;71358;45.642;13.758;2023-07-30T01:25:03;6.40;;;4.65;;
81894;SDS011;71358;45.642;13.758;2023-07-30T01:27:49;4.97;;;4.50;;
81894;SDS011;71358;45.642;13.758;2023-07-30T01:30:40;4.57;;;4.18;;
81894;SDS011;71358;45.642;13.758;2023-07-30T01:33:26;4.97;;;4.28;;
81894;SDS011;71358;45.642;13.758;2023-07-30T01:36:11;5.50;;;5.00;;
81894;SDS011;71358;45.642;13.758;2023-07-30T01:38:59;4.80;;;4.22;;
81894;SDS011;71358;45.642;13.758;2023-07-30T01:41:45;5.22;;;4.47;;
81894;SDS011;71358;45.642;13.758;2023-07-30T01:44:29;4.60;;;4.18;;
81894;SDS011;71358;45.642;13.758;2023-07-30T01:47:14;5.03;;;4.50;;
81894;SDS011;71358;45.642;13.758;2023-07-30T01:49:59;4.85;;;4.35;;
81894;SDS011;71358;45.642;13.758;2023-07-30T01:52:44;4.43;;;4.03;;
81894;SDS011;71358;45.642;13.758;2023-07-30T01:55:28;4.95;;;4.32;;
81894;SDS011;71358;45.642;13.758;2023-07-30T01:58:13;5.40;;;4.53;;
81894;SDS011;71358;45.642;13.758;2023-07-30T02:00:58;4.70;;;4.05;;
81894;SDS011;71358;45.642;13.758;2023-07-30T02:03:42;5.63;;;4.20;;
81894;SDS011;71358;45.642;13.758;2023-07-30T02:06:27;4.40;;;4.03;;
81894;SDS011;71358;45.642;13.758;2023-07-30T02:09:11;4.43;;;4.03;;
81894;SDS011;71358;45.642;13.758;2023-07-30T02:11:56;4.30;;;3.90;;
81894;SDS011;71358;45.642;13.758;2023-07-30T02:14:41;5.18;;;4.18;;
81894;SDS011;71358;45.642;13.758;2023-07-30T02:17:25;4.43;;;4.13;;
81894;SDS011;71358;45.642;13.758;2023-07-30T02:20:10;4.13;;;3.67;;
81894;SDS011;71358;45.642;13.758;2023-07-30T02:22:54;6.45;;;4.97;;
81894;SDS011;71358;45.642;13.758;2023-07-30T02:25:39;5.53;;;4.32;;
81894;SDS011;71358;45.642;13.758;2023-07-30T02:28:23;4.82;;;4.20;;
81894;SDS011;71358;45.642;13.758;2023-07-30T02:31:08;5.93;;;4.72;;
81894;SDS011;71358;45.642;13.758;2023-07-30T02:33:53;6.10;;;4.97;;
81894;SDS011;71358;45.642;13.758;2023-07-30T02:36:38;4.93;;;4.40;;
81894;SDS011;71358;45.642;13.758;2023-07-30T02:39:22;6.18;;;4.82;;
81894;SDS011;71358;45.642;13.758;2023-07-30T02:42:07;4.97;;;4.57;;
81894;SDS011;71358;45.642;13.758;2023-07-30T02:44:52;5.07;;;4.38;;
81894;SDS011;71358;45.642;13.758;2023-07-30T02:47:36;4.97;;;4.47;;
81894;SDS011;71358;45.642;13.758;2023-07-30T02:50:21;5.85;;;5.00;;
81894;SDS011;71358;45.642;13.758;2023-07-30T02:53:05;4.85;;;4.43;;
81894;SDS011;71358;45.642;13.758;2023-07-30T02:55:50;4.55;;;4.15;;
81894;SDS011;71358;45.642;13.758;2023-07-30T02:58:35;9.23;;;3.53;;
81894;SDS011;71358;45.642;13.758;2023-07-30T03:01:19;10.25;;;3.72;;
81894;SDS011;71358;45.642;13.758;2023-07-30T03:04:04;15.13;;;5.05;;
81894;SDS011;71358;45.642;13.758;2023-07-30T03:06:49;20.83;;;7.78;;
81894;SDS011;71358;45.642;13.758;2023-07-30T03:09:34;16.27;;;6.07;;
81894;SDS011;71358;45.642;13.758;2023-07-30T03:12:18;18.15;;;5.43;;
81894;SDS011;71358;45.642;13.758;2023-07-30T03:15:03;12.88;;;5.07;;
81894;SDS011;71358;45.642;13.758;2023-07-30T03:17:48;18.30;;;5.20;;
81894;SDS011;71358;45.642;13.758;2023-07-30T03:20:33;13.77;;;5.00;;
81894;SDS011;71358;45.642;13.758;2023-07-30T03:23:18;10.43;;;4.88;;
81894;SDS011;71358;45.642;13.758;2023-07-30T03:26:02;15.27;;;4.65;;
81894;SDS011;71358;45.642;13.758;2023-07-30T03:28:47;11.23;;;5.18;;
81894;SDS011;71358;45.642;13.758;2023-07-30T03:31:31;9.10;;;3.70;;
81894;SDS011;71358;45.642;13.758;2023-07-30T03:34:16;11.00;;;4.10;;
81894;SDS011;71358;45.642;13.758;2023-07-30T03:37:00;7.53;;;3.70;;
81894;SDS011;71358;45.642;13.758;2023-07-30T03:39:45;10.57;;;4.60;;
81894;SDS011;71358;45.642;13.758;2023-07-30T03:42:30;11.55;;;4.20;;
81894;SDS011;71358;45.642;13.758;2023-07-30T03:45:14;9.95;;;3.80;;
81894;SDS011;71358;45.642;13.758;2023-07-30T03:47:59;12.65;;;4.07;;
81894;SDS011;71358;45.642;13.758;2023-07-30T03:50:43;8.32;;;2.80;;
81894;SDS011;71358;45.642;13.758;2023-07-30T03:53:28;7.03;;;3.60;;
81894;SDS011;71358;45.642;13.758;2023-07-30T03:56:13;8.85;;;2.92;;
81894;SDS011;71358;45.642;13.758;2023-07-30T03:58:57;6.30;;;2.90;;
81894;SDS011;71358;45.642;13.758;2023-07-30T04:01:42;2.60;;;2.28;;
81894;SDS011;71358;45.642;13.758;2023-07-30T04:04:27;4.78;;;2.60;;
81894;SDS011;71358;45.642;13.758;2023-07-30T04:07:11;5.68;;;2.47;;
81894;SDS011;71358;45.642;13.758;2023-07-30T04:09:56;4.95;;;2.10;;
81894;SDS011;71358;45.642;13.758;2023-07-30T04:12:40;3.03;;;1.80;;
81894;SDS011;71358;45.642;13.758;2023-07-30T04:15:25;3.33;;;2.50;;
81894;SDS011;71358;45.642;13.758;2023-07-30T04:18:10;1.95;;;1.50;;
81894;SDS011;71358;45.642;13.758;2023-07-30T04:20:56;2.58;;;1.20;;
81894;SDS011;71358;45.642;13.758;2023-07-30T04:23:40;1.67;;;1.25;;
81894;SDS011;71358;45.642;13.758;2023-07-30T04:26:25;1.88;;;1.30;;
81894;SDS011;71358;45.642;13.758;2023-07-30T04:29:09;1.70;;;0.95;;
81894;SDS011;71358;45.642;13.758;2023-07-30T04:31:54;1.08;;;0.98;;
81894;SDS011;71358;45.642;13.758;2023-07-30T04:34:39;2.42;;;0.90;;
81894;SDS011;71358;45.642;13.758;2023-07-30T04:37:24;0.75;;;0.73;;
81894;SDS011;71358;45.642;13.758;2023-07-30T04:40:10;0.60;;;0.60;;
81894;SDS011;71358;45.642;13.758;2023-07-30T04:42:55;1.05;;;0.80;;
81894;SDS011;71358;45.642;13.758;2023-07-30T04:45:39;1.20;;;0.80;;
81894;SDS011;71358;45.642;13.758;2023-07-30T04:48:25;1.00;;;0.80;;
81894;SDS011;71358;45.642;13.758;2023-07-30T04:51:09;0.68;;;0.68;;
81894;SDS011;71358;45.642;13.758;2023-07-30T04:53:54;0.82;;;0.75;;
81894;SDS011;71358;45.642;13.758;2023-07-30T04:56:38;1.13;;;0.90;;
81894;SDS011;71358;45.642;13.758;2023-07-30T04:59:23;0.80;;;0.60;;
81894;SDS011;71358;45.642;13.758;2023-07-30T05:02:08;1.23;;;0.80;;
81894;SDS011;71358;45.642;13.758;2023-07-30T05:04:52;0.60;;;0.60;;
81894;SDS011;71358;45.642;13.758;2023-07-30T16:43:49;2.45;;;1.40;;
81894;SDS011;71358;45.642;13.758;2023-07-30T16:46:33;3.00;;;1.77;;
81894;SDS011;71358;45.642;13.758;2023-07-30T16:49:18;2.80;;;1.58;;
81894;SDS011;71358;45.642;13.758;2023-07-30T16:52:02;1.60;;;1.50;;
81894;SDS011;71358;45.642;13.758;2023-07-30T16:54:47;2.10;;;1.60;;
81894;SDS011;71358;45.642;13.758;2023-07-30T16:57:31;2.70;;;1.52;;
81894;SDS011;71358;45.642;13.758;2023-07-30T17:00:16;4.13;;;1.90;;
81894;SDS011;71358;45.642;13.758;2023-07-30T17:03:01;2.30;;;1.77;;
81894;SDS011;71358;45.642;13.758;2023-07-30T17:05:55;3.67;;;1.98;;
81894;SDS011;71358;45.642;13.758;2023-07-30T17:08:40;3.17;;;1.55;;
81894;SDS011;71358;45.642;13.758;2023-07-30T17:11:25;2.38;;;1.70;;
81894;SDS011;71358;45.642;13.758;2023-07-30T17:14:10;1.80;;;1.70;;
81894;SDS011;71358;45.642;13.758;2023-07-30T17:16:54;1.98;;;1.63;;
81894;SDS011;71358;45.642;13.758;2023-07-30T17:19:39;2.55;;;1.58;;
81894;SDS011;71358;45.642;13.758;2023-07-30T17:22:25;1.48;;;1.27;;
81894;SDS011;71358;45.642;13.758;2023-07-30T17:25:10;1.95;;;1.67;;
81894;SDS011;71358;45.642;13.758;2023-07-30T17:27:54;1.90;;;1.80;;
81894;SDS011;71358;45.642;13.758;2023-07-30T17:30:39;1.73;;;1.60;;
81894;SDS011;71358;45.642;13.758;2023-07-30T17:33:23;5.10;;;1.70;;
81894;SDS011;71358;45.642;13.758;2023-07-30T17:36:08;2.28;;;1.77;;
81894;SDS011;71358;45.642;13.758;2023-07-30T17:38:53;1.67;;;1.58;;
81894;SDS011;71358;45.642;13.758;2023-07-30T17:41:38;2.25;;;1.90;;
81894;SDS011;71358;45.642;13.758;2023-07-30T17:44:23;3.53;;;2.22;;
81894;SDS011;71358;45.642;13.758;2023-07-30T17:47:07;3.50;;;1.73;;
81894;SDS011;71358;45.642;13.758;2023-07-30T17:49:54;2.03;;;1.83;;
81894;SDS011;71358;45.642;13.758;2023-07-30T17:52:40;2.85;;;2.22;;
81894;SDS011;71358;45.642;13.758;2023-07-30T17:55:24;2.33;;;2.00;;
81894;SDS011;71358;45.642;13.758;2023-07-30T17:58:09;3.05;;;1.75;;
81894;SDS011;71358;45.642;13.758;2023-07-30T18:00:54;1.70;;;1.60;;
81894;SDS011;71358;45.642;13.758;2023-07-30T18:03:39;2.25;;;1.77;;
81894;SDS011;71358;45.642;13.758;2023-07-30T18:06:24;4.60;;;1.90;;
81894;SDS011;71358;45.642;13.758;2023-07-30T18:09:09;1.80;;;1.70;;
81894;SDS011;71358;45.642;13.758;2023-07-30T18:11:53;2.47;;;2.25;;
81894;SDS011;71358;45.642;13.758;2023-07-30T18:14:38;1.83;;;1.67;;
81894;SDS011;71358;45.642;13.758;2023-07-30T18:17:22;3.83;;;2.05;;
81894;SDS011;71358;45.642;13.758;2023-07-30T18:20:08;2.13;;;2.03;;
81894;SDS011;71358;45.642;13.758;2023-07-30T18:22:53;3.30;;;2.20;;
81894;SDS011;71358;45.642;13.758;2023-07-30T18:25:37;1.98;;;1.88;;
81894;SDS011;71358;45.642;13.758;2023-07-30T18:28:22;2.22;;;2.03;;
81894;SDS011;71358;45.642;13.758;2023-07-30T18:31:07;3.58;;;2.10;;
81894;SDS011;71358;45.642;13.758;2023-07-30T18:33:51;3.58;;;1.83;;
81894;SDS011;71358;45.642;13.758;2023-07-30T18:36:36;1.98;;;1.83;;
81894;SDS011;71358;45.642;13.758;2023-07-30T18:39:21;1.90;;;1.70;;
81894;SDS011;71358;45.642;13.758;2023-07-30T18:42:09;2.15;;;1.92;;
81894;SDS011;71358;45.642;13.758;2023-07-30T18:44:54;1.92;;;1.83;;
81894;SDS011;71358;45.642;13.758;2023-07-30T18:47:39;1.88;;;1.73;;
81894;SDS011;71358;45.642;13.758;2023-07-30T18:50:23;2.65;;;2.38;;
81894;SDS011;71358;45.642;13.758;2023-07-30T18:53:08;2.17;;;2.08;;
81894;SDS011;71358;45.642;13.758;2023-07-30T18:55:53;2.30;;;2.10;;
81894;SDS011;71358;45.642;13.758;2023-07-30T18:58:37;2.13;;;1.95;;
81894;SDS011;71358;45.642;13.758;2023-07-30T19:01:22;2.30;;;2.20;;
81894;SDS011;71358;45.642;13.758;2023-07-30T19:04:07;2.13;;;2.03;;
81894;SDS011;71358;45.642;13.758;2023-07-30T19:06:52;2.55;;;2.35;;
81894;SDS011;71358;45.642;13.758;2023-07-30T19:09:36;2.60;;;2.15;;
81894;SDS011;71358;45.642;13.758;2023-07-30T19:12:21;2.05;;;1.95;;
81894;SDS011;71358;45.642;13.758;2023-07-30T19:15:06;2.50;;;2.30;;
81894;SDS011;71358;45.642;13.758;2023-07-30T19:17:51;1.92;;;1.83;;
81894;SDS011;71358;45.642;13.758;2023-07-30T19:20:35;2.10;;;1.90;;
81894;SDS011;71358;45.642;13.758;2023-07-30T19:23:20;1.98;;;1.80;;
81894;SDS011;71358;45.642;13.758;2023-07-30T19:26:05;2.63;;;1.80;;
81894;SDS011;71358;45.642;13.758;2023-07-30T19:28:49;2.95;;;1.83;;
81894;SDS011;71358;45.642;13.758;2023-07-30T19:31:36;2.65;;;2.45;;
81894;SDS011;71358;45.642;13.758;2023-07-30T19:34:21;3.15;;;2.05;;
81894;SDS011;71358;45.642;13.758;2023-07-30T19:37:05;2.00;;;1.90;;
81894;SDS011;71358;45.642;13.758;2023-07-30T19:39:50;1.95;;;1.85;;
81894;SDS011;71358;45.642;13.758;2023-07-30T19:42:34;2.15;;;1.98;;
81894;SDS011;71358;45.642;13.758;2023-07-30T19:45:28;2.03;;;1.88;;
81894;SDS011;71358;45.642;13.758;2023-07-30T19:48:13;2.50;;;2.30;;
81894;SDS011;71358;45.642;13.758;2023-07-30T19:50:58;1.75;;;1.65;;
81894;SDS011;71358;45.642;13.758;2023-07-30T19:54:16;2.03;;;1.92;;
81894;SDS011;71358;45.642;13.758;2023-07-30T19:57:01;2.45;;;2.25;;
81894;SDS011;71358;45.642;13.758;2023-07-30T19:59:46;2.00;;;1.90;;
81894;SDS011;71358;45.642;13.758;2023-07-30T20:02:31;2.25;;;2.05;;
81894;SDS011;71358;45.642;13.758;2023-07-30T20:05:15;1.77;;;1.67;;
81894;SDS011;71358;45.642;13.758;2023-07-30T20:08:00;2.58;;;2.38;;
81894;SDS011;71358;45.642;13.758;2023-07-30T20:10:45;3.08;;;1.80;;
81894;SDS011;71358;45.642;13.758;2023-07-30T20:13:29;1.83;;;1.63;;
81894;SDS011;71358;45.642;13.758;2023-07-30T20:16:14;1.80;;;1.70;;
81894;SDS011;71358;45.642;13.758;2023-07-30T20:18:59;1.95;;;1.67;;
81894;SDS011;71358;45.642;13.758;2023-07-30T20:21:44;2.05;;;1.88;;
81894;SDS011;71358;45.642;13.758;2023-07-30T20:24:28;2.58;;;2.00;;
81894;SDS011;71358;45.642;13.758;2023-07-30T20:27:13;2.33;;;1.70;;
81894;SDS011;71358;45.642;13.758;2023-07-30T20:29:57;2.20;;;2.00;;
81894;SDS011;71358;45.642;13.758;2023-07-30T20:32:42;1.95;;;1.85;;
81894;SDS011;71358;45.642;13.758;2023-07-30T20:35:27;2.00;;;1.90;;
81894;SDS011;71358;45.642;13.758;2023-07-30T20:38:11;1.80;;;1.67;;
81894;SDS011;71358;45.642;13.758;2023-07-30T20:40:59;2.00;;;1.80;;
81894;SDS011;71358;45.642;13.758;2023-07-30T20:43:44;2.50;;;2.30;;
81894;SDS011;71358;45.642;13.758;2023-07-30T20:46:28;1.80;;;1.70;;
81894;SDS011;71358;45.642;13.758;2023-07-30T20:49:13;1.52;;;1.30;;
81894;SDS011;71358;45.642;13.758;2023-07-30T20:51:57;1.95;;;1.85;;
81894;SDS011;71358;45.642;13.758;2023-07-30T20:54:42;3.03;;;2.05;;
81894;SDS011;71358;45.642;13.758;2023-07-30T20:57:27;1.98;;;1.88;;
81894;SDS011;71358;45.642;13.758;2023-07-30T21:00:11;1.80;;;1.65;;
81894;SDS011;71358;45.642;13.758;2023-07-30T21:02:56;1.73;;;1.63;;
81894;SDS011;71358;45.642;13.758;2023-07-30T21:05:41;3.03;;;2.83;;
81894;SDS011;71358;45.642;13.758;2023-07-30T21:08:26;2.88;;;2.60;;
81894;SDS011;71358;45.642;13.758;2023-07-30T21:11:11;2.00;;;1.90;;
81894;SDS011;71358;45.642;13.758;2023-07-30T21:13:55;2.17;;;1.98;;
81894;SDS011;71358;45.642;13.758;2023-07-30T21:16:40;2.25;;;2.05;;
81894;SDS011;71358;45.642;13.758;2023-07-30T21:19:24;2.08;;;1.65;;
81894;SDS011;71358;45.642;13.758;2023-07-30T21:22:09;1.92;;;1.83;;
81894;SDS011;71358;45.642;13.758;2023-07-30T21:24:54;1.70;;;1.60;;
81894;SDS011;71358;45.642;13.758;2023-07-30T21:27:38;2.25;;;2.10;;
81894;SDS011;71358;45.642;13.758;2023-07-30T21:30:23;6.95;;;2.20;;
81894;SDS011;71358;45.642;13.758;2023-07-30T21:33:07;3.65;;;2.15;;
81894;SDS011;71358;45.642;13.758;2023-07-30T21:35:52;2.22;;;2.03;;
81894;SDS011;71358;45.642;13.758;2023-07-30T21:38:37;3.22;;;1.70;;
81894;SDS011;71358;45.642;13.758;2023-07-30T21:41:21;1.88;;;1.70;;
81894;SDS011;71358;45.642;13.758;2023-07-30T21:44:06;1.83;;;1.73;;
81894;SDS011;71358;45.642;13.758;2023-07-30T21:46:51;2.50;;;1.65;;
81894;SDS011;71358;45.642;13.758;2023-07-30T21:49:35;1.85;;;1.75;;
81894;SDS011;71358;45.642;13.758;2023-07-30T21:52:24;1.65;;;1.55;;
81894;SDS011;71358;45.642;13.758;2023-07-30T21:55:11;2.22;;;2.08;;
81894;SDS011;71358;45.642;13.758;2023-07-30T21:57:56;1.80;;;1.70;;
81894;SDS011;71358;45.642;13.758;2023-07-30T22:00:40;1.50;;;1.40;;
81894;SDS011;71358;45.642;13.758;2023-07-30T22:03:26;1.70;;;1.60;;
81894;SDS011;71358;45.642;13.758;2023-07-30T22:06:11;1.50;;;1.40;;
81894;SDS011;71358;45.642;13.758;2023-07-30T22:08:56;1.70;;;1.60;;
81894;SDS011;71358;45.642;13.758;2023-07-30T22:11:41;2.10;;;1.90;;
81894;SDS011;71358;45.642;13.758;2023-07-30T22:14:26;1.92;;;1.83;;
81894;SDS011;71358;45.642;13.758;2023-07-30T22:17:11;1.80;;;1.70;;
81894;SDS011;71358;45.642;13.758;2023-07-30T22:19:55;1.80;;;1.70;;
81894;SDS011;71358;45.642;13.758;2023-07-30T22:22:41;3.28;;;2.00;;
81894;SDS011;71358;45.642;13.758;2023-07-30T22:25:26;3.25;;;2.20;;
81894;SDS011;71358;45.642;13.758;2023-07-30T22:28:10;4.05;;;2.08;;
81894;SDS011;71358;45.642;13.758;2023-07-30T22:30:55;1.80;;;1.70;;
81894;SDS011;71358;45.642;13.758;2023-07-30T22:33:40;2.72;;;2.15;;
81894;SDS011;71358;45.642;13.758;2023-07-30T22:36:24;3.10;;;2.03;;
81894;SDS011;71358;45.642;13.758;2023-07-30T22:39:09;2.33;;;2.13;;
81894;SDS011;71358;45.642;13.758;2023-07-30T22:41:53;2.30;;;1.60;;
81894;SDS011;71358;45.642;13.758;2023-07-30T22:44:38;2.40;;;2.00;;
81894;SDS011;71358;45.642;13.758;2023-07-30T22:47:23;2.22;;;2.08;;
81894;SDS011;71358;45.642;13.758;2023-07-30T22:50:07;2.15;;;1.95;;
81894;SDS011;71358;45.642;13.758;2023-07-30T22:52:52;2.83;;;2.10;;
81894;SDS011;71358;45.642;13.758;2023-07-30T22:55:37;2.25;;;1.80;;
81894;SDS011;71358;45.642;13.758;2023-07-30T22:58:22;2.80;;;1.70;;
81894;SDS011;71358;45.642;13.758;2023-07-30T23:01:07;3.45;;;1.90;;
81894;SDS011;71358;45.642;13.758;2023-07-30T23:03:51;2.00;;;1.83;;
81894;SDS011;71358;45.642;13.758;2023-07-30T23:06:36;2.13;;;1.90;;
81894;SDS011;71358;45.642;13.758;2023-07-30T23:09:20;3.72;;;1.60;;
81894;SDS011;71358;45.642;13.758;2023-07-30T23:12:06;2.08;;;1.75;;
81894;SDS011;71358;45.642;13.758;2023-07-30T23:14:51;2.00;;;1.90;;
81894;SDS011;71358;45.642;13.758;2023-07-30T23:17:36;2.25;;;2.00;;
81894;SDS011;71358;45.642;13.758;2023-07-30T23:20:20;2.45;;;2.15;;
81894;SDS011;71358;45.642;13.758;2023-07-30T23:23:05;2.08;;;1.70;;
81894;SDS011;71358;45.642;13.758;2023-07-30T23:25:50;3.63;;;1.92;;
81894;SDS011;71358;45.642;13.758;2023-07-30T23:28:36;1.60;;;1.50;;
81894;SDS011;71358;45.642;13.758;2023-07-30T23:31:20;3.88;;;1.85;;
81894;SDS011;71358;45.642;13.758;2023-07-30T23:34:05;1.83;;;1.50;;
81894;SDS011;71358;45.642;13.758;2023-07-30T23:36:49;2.53;;;1.70;;
81894;SDS011;71358;45.642;13.758;2023-07-30T23:39:34;2.30;;;1.70;;
81894;SDS011;71358;45.642;13.758;2023-07-30T23:42:19;1.65;;;1.55;;
81894;SDS011;71358;45.642;13.758;2023-07-30T23:45:03;2.60;;;1.98;;
81894;SDS011;71358;45.642;13.758;2023-07-30T23:47:48;1.90;;;1.70;;
81894;SDS011;71358;45.642;13.758;2023-07-30T23:50:33;2.55;;;1.52;;
81894;SDS011;71358;45.642;13.758;2023-07-30T23:53:17;1.85;;;1.75;;
81894;SDS011;71358;45.642;13.758;2023-07-30T23:56:02;1.52;;;1.42;;
81894;SDS011;71358;45.642;13.758;2023-07-30T23:58:46;2.05;;;1.55;;
